首页
METAR-TAF:

METAR-TAF

机场 :

Brooks County Airport

Falfurrias, 得克萨斯州, 美国

纬度: 27-12-24N, 经度: 098-07-16W, 海拔: 34米

当前天气观测

该预报发布于10分钟前的23:35 UTC
风速9节,风向南转南东
温度 28°C
湿度 55%
气压 1007 hPa
能見度: 16.1公里
天空无云

METAR: KBKS 092335Z AUTO 15009KT 10SM CLR 28/18 A2974 RMK AO1 T02790182

时间: 17:45 (23:45 UTC)


TAF: 丢失

超过4000个机场的气象观测和天气预报(METAR&TAF报告)。

可查询的气象台以黄色和红色小点在地图上表示。

将鼠标移到小点上方,可查看气象台名称。

然后点击查看天气观测和预报。

如需切换地图:点击带黑十字的绿色按钮放大地图;点击带横线的绿色按钮缩小地图;或者点击绿色箭头查看邻近地区的地图。


METAR-TAF: